KEBS/EBS METAR and TAF weather

Enter ICAO airport designator
Station Type Date Time Source
KEBS METAR 2019/06/17 12:35 UTC NOAA

KEBS 171235Z AUTO 15007KT M1/4SM FG OVC003 17/17 A2996 RMK AO2


Station Type Date Time Source
KEBS Decoded METAR 2019/06/17 12:35 UTC NOAA

Webster City, IA, United States (KEBS) 42-26N 093-52W
Jun 17, 2019 - 08:35 AM EDT / 2019.06.17 1235 UTC
Wind: from the SSE (150 degrees) at 8 MPH (7 KT):0
Visibility: less than 1/4 mile(s):1
Sky conditions: overcast
Weather: fog
Temperature: 62 F (17 C)
Dew Point: 62 F (17 C)
Relative Humidity: 100%
Pressure (altimeter): 29.96 in. Hg (1014 hPa)
ob: KEBS 171235Z AUTO 15007KT M1/4SM FG OVC003 17/17 A2996 RMK AO2
cycle: 12

Station Type Date Time Source
KEBS TAF UTC NOAA

Error!

Example: see airport list